オークランド の空港の天気 - METARとTAF

オークランド国際空港 ( NZAA / AKL ) - ニュージーランド オークランド|オークランド
飛行場実況気象(Metar)
観測時間02/21 14:30 NZDT (02/21 01:30 UTC)
風向・風速北北東 7m/s
視程10km以上
天気現象
少しの雲 雲底高度 820m
全天の4割程度の雲 雲底高度 1010m
気温26℃
湿度65%
気圧1017hPa
METARNZAA 210130Z AUTO 02014KT 350V060 9999 FEW027/// SCT033/// 26/19 Q1017 NOSIG
過去の天気等 Google飛行場航空写真 Wunderground天気予報

過去48時間のMETAR

飛行場予報(TAF)
発表時間: 2/21 12:01 NZDT (2/20 23:01 UTC)
予報対象時間: 21日13時 NZDT ~ 22日13時 NZDT
風向・風速北北東 8m/s
視程10km以上
天気現象弱いしゅう雨
全天の4割程度の雲 雲底高度 910m
21日21時 NZDT ~ 21日23時 NZDT に徐々に
風向・風速北北東 3m/s
22日9時 NZDT ~ 22日11時 NZDT に徐々に
風向・風速東北東 8m/s
22日9時 NZDT ~ 22日13時 NZDT に一時的に
視程6000m
天気現象
TAF NZAA 202301Z 2100/2200 03015KT 9999 -SHRA SCT030
BECMG 2108/2110 03005KT
BECMG 2120/2122 06015KT
TEMPO 2120/2200 6000 RA